Time;durP1;ratioP1;P1;durP2;ratioP2;P2;SDS_P1;SDS_P2;PMS_P1;PMS_P2;Temp;Humidity;BMP_temperature;BMP_pressure;BME280_temperature;BME280_humidity;BME280_pressure;Samples;Min_cycle;Max_cycle;Signal;HPM_P1;HPM_P2
2022/01/07 05:02:19;;;;;;;6.10;4.00;;;2.70;99.90;;;;;;5047062;23;20380;-69
2022/01/07 05:04:45;;;;;;;12.55;4.47;;;2.70;99.90;;;;;;4914647;29;20217;-69
2022/01/07 05:07:12;;;;;;;4.30;3.95;;;2.70;99.90;;;;;;4915896;29;20207;-69
2022/01/07 05:09:39;;;;;;;5.85;4.22;;;2.80;99.90;;;;;;4915796;29;20210;-69
2022/01/07 05:12:06;;;;;;;8.60;4.32;;;2.80;99.90;;;;;;4915191;29;20242;-69
2022/01/07 05:14:33;;;;;;;9.10;3.97;;;2.80;99.90;;;;;;4914867;29;20615;-68
2022/01/07 05:16:59;;;;;;;9.73;3.85;;;2.80;99.90;;;;;;4911766;29;20688;-69
2022/01/07 05:19:27;;;;;;;4.15;3.42;;;2.80;99.90;;;;;;4915925;29;20353;-67
2022/01/07 05:21:54;;;;;;;12.85;4.68;;;2.80;99.90;;;;;;4908270;29;20231;-68
2022/01/07 05:24:21;;;;;;;10.02;5.43;;;2.80;99.90;;;;;;4913894;29;20270;-69
2022/01/07 05:26:47;;;;;;;11.55;4.07;;;2.80;99.90;;;;;;4897725;29;20263;-68
2022/01/07 05:29:14;;;;;;;4.38;3.83;;;2.80;99.90;;;;;;4896627;29;20212;-69
2022/01/07 05:31:41;;;;;;;13.07;4.22;;;2.80;99.90;;;;;;4909360;29;20346;-69
2022/01/07 05:34:07;;;;;;;4.47;4.05;;;2.80;99.90;;;;;;4896992;29;20211;-68
2022/01/07 05:36:37;;;;;;;6.38;4.57;;;2.80;99.90;;;;;;4910275;29;20215;-69
2022/01/07 05:39:05;;;;;;;4.30;3.90;;;2.80;99.90;;;;;;4927654;23;20234;-70
2022/01/07 05:41:32;;;;;;;6.00;4.32;;;2.70;99.90;;;;;;4895008;29;20318;-70
2022/01/07 05:43:59;;;;;;;7.20;4.13;;;2.70;99.90;;;;;;4891850;29;20242;-70
2022/01/07 05:46:26;;;;;;;5.72;4.35;;;2.70;99.90;;;;;;4896108;29;20207;-70
2022/01/07 05:48:53;;;;;;;7.75;3.88;;;2.70;99.90;;;;;;4894355;29;20274;-69
2022/01/07 05:51:20;;;;;;;6.82;4.40;;;2.60;99.90;;;;;;4877725;29;20220;-69
2022/01/07 05:53:48;;;;;;;6.75;3.85;;;2.60;99.90;;;;;;4889225;29;20208;-70
2022/01/07 05:56:15;;;;;;;10.07;4.97;;;2.60;99.90;;;;;;4896646;29;20218;-69
2022/01/07 05:58:41;;;;;;;5.40;3.90;;;2.60;99.90;;;;;;4894781;29;20224;-68
2022/01/07 06:01:11;;;;;;;8.98;4.50;;;2.60;99.90;;;;;;4896262;29;20252;-68
2022/01/07 06:03:37;;;;;;;6.43;4.43;;;2.60;99.90;;;;;;4892393;29;20255;-69
2022/01/07 06:06:04;;;;;;;6.03;4.10;;;2.50;99.90;;;;;;4893193;29;20216;-69
2022/01/07 06:08:31;;;;;;;5.13;3.90;;;2.50;99.90;;;;;;4884963;29;20290;-69
2022/01/07 06:10:59;;;;;;;6.47;4.22;;;2.50;99.90;;;;;;4896111;29;20218;-69
2022/01/07 06:13:26;;;;;;;6.90;3.97;;;2.50;99.90;;;;;;4895470;29;20898;-69
2022/01/07 06:15:52;;;;;;;11.45;4.15;;;2.50;99.90;;;;;;4896118;29;20223;-69
2022/01/07 06:18:19;;;;;;;13.05;4.40;;;2.50;99.90;;;;;;4895876;29;20270;-69
2022/01/07 06:20:46;;;;;;;6.82;4.20;;;2.50;99.90;;;;;;4895535;29;20238;-69
2022/01/07 06:23:12;;;;;;;5.90;4.75;;;2.50;99.90;;;;;;4893470;29;20267;-69
2022/01/07 06:25:40;;;;;;;8.77;4.05;;;2.50;99.90;;;;;;4894855;29;20223;-70
2022/01/07 06:28:08;;;;;;;8.23;5.43;;;2.50;99.90;;;;;;4896255;29;20215;-69
2022/01/07 06:30:35;;;;;;;7.07;2.72;;;2.50;99.90;;;;;;4895704;29;20210;-69
2022/01/07 06:33:01;;;;;;;7.45;4.40;;;2.50;99.90;;;;;;4895713;29;20740;-69
2022/01/07 06:35:28;;;;;;;11.38;4.45;;;2.50;99.90;;;;;;4895468;29;20215;-68
2022/01/07 06:37:55;;;;;;;6.32;4.80;;;2.50;99.90;;;;;;4895718;29;20211;-69
2022/01/07 06:40:21;;;;;;;4.78;4.30;;;2.50;99.90;;;;;;4889463;29;20248;-70
2022/01/07 06:42:48;;;;;;;9.38;4.47;;;2.50;99.90;;;;;;4893846;29;20218;-69
2022/01/07 06:45:16;;;;;;;4.95;3.63;;;2.50;99.90;;;;;;4895425;29;20203;-70
2022/01/07 06:47:43;;;;;;;8.27;4.20;;;2.50;99.90;;;;;;4895298;29;20212;-69
2022/01/07 06:50:10;;;;;;;9.75;5.28;;;2.50;99.90;;;;;;4895275;29;20279;-69
2022/01/07 06:52:37;;;;;;;4.35;3.88;;;2.50;99.90;;;;;;4895579;29;20199;-69
2022/01/07 06:55:04;;;;;;;7.57;4.53;;;2.50;99.90;;;;;;4895445;29;20203;-69
2022/01/07 06:57:31;;;;;;;6.53;4.63;;;2.50;99.90;;;;;;4890997;29;20291;-69
2022/01/07 06:59:58;;;;;;;9.98;4.32;;;2.50;99.90;;;;;;4894340;29;20219;-69
2022/01/07 07:02:26;;;;;;;6.93;3.55;;;2.50;99.90;;;;;;4895605;29;20231;-69
2022/01/07 07:04:52;;;;;;;5.95;3.78;;;2.50;99.90;;;;;;4895213;29;20203;-69
2022/01/07 07:07:19;;;;;;;7.43;5.07;;;2.50;99.90;;;;;;4894901;29;20207;-69
2022/01/07 07:09:46;;;;;;;7.30;4.75;;;2.50;99.90;;;;;;4895352;29;20303;-69
2022/01/07 07:12:13;;;;;;;7.70;5.25;;;2.50;99.90;;;;;;4895004;29;20298;-70
2022/01/07 07:14:39;;;;;;;7.45;3.88;;;2.60;99.90;;;;;;4884346;29;20664;-69
2022/01/07 07:17:06;;;;;;;7.93;4.43;;;2.50;99.90;;;;;;4895704;29;20624;-70
2022/01/07 07:19:34;;;;;;;66.68;33.55;;;2.60;99.90;;;;;;4895235;29;20239;-70
2022/01/07 07:22:01;;;;;;;42.03;24.73;;;2.60;99.90;;;;;;4894747;29;20219;-69
2022/01/07 07:24:28;;;;;;;14.32;10.93;;;2.50;99.90;;;;;;4895356;29;20212;-70
2022/01/07 07:26:54;;;;;;;13.48;10.52;;;2.50;99.90;;;;;;4895184;29;20215;-70
2022/01/07 07:29:21;;;;;;;27.95;19.08;;;2.50;99.90;;;;;;4894239;29;20224;-70
2022/01/07 07:31:51;;;;;;;29.88;17.95;;;2.50;99.90;;;;;;4889973;29;20223;-69
2022/01/07 07:34:43;;;;;;;9.25;8.32;;;2.50;99.90;;;;;;4894765;29;20222;-70
2022/01/07 07:37:13;;;;;;;11.90;6.55;;;2.50;99.90;;;;;;4895186;29;20286;-69
2022/01/07 07:39:40;;;;;;;7.05;6.40;;;2.40;99.90;;;;;;4894894;29;20349;-69
2022/01/07 07:42:07;;;;;;;15.73;7.35;;;2.40;99.90;;;;;;4894459;29;20604;-70
2022/01/07 07:44:33;;;;;;;6.45;4.15;;;2.40;99.90;;;;;;4894237;29;20207;-70
2022/01/07 07:47:00;;;;;;;10.15;6.03;;;2.30;99.90;;;;;;4893208;29;20267;-69
2022/01/07 07:49:27;;;;;;;11.55;5.47;;;2.30;99.90;;;;;;4890745;29;20223;-70
2022/01/07 07:51:54;;;;;;;8.20;5.47;;;2.30;99.90;;;;;;4896033;29;20230;-69
2022/01/07 07:54:22;;;;;;;8.68;5.88;;;2.30;99.90;;;;;;4898980;29;20207;-70
2022/01/07 07:56:49;;;;;;;8.60;5.65;;;2.30;99.90;;;;;;4895807;29;20657;-69
2022/01/07 07:59:16;;;;;;;8.82;6.43;;;2.40;99.90;;;;;;4897446;29;20724;-70
2022/01/07 08:01:42;;;;;;;7.70;6.28;;;2.40;99.90;;;;;;4897850;29;20234;-69
2022/01/07 08:04:12;;;;;;;9.30;6.43;;;2.40;99.90;;;;;;4898148;29;20258;-69
2022/01/07 08:06:38;;;;;;;7.28;5.25;;;2.40;99.90;;;;;;4887352;29;20295;-69
2022/01/07 08:09:05;;;;;;;8.40;5.80;;;2.40;99.90;;;;;;4898192;29;20226;-69
2022/01/07 08:11:47;;;;;;;6.57;5.72;;;2.40;99.90;;;;;;4897750;29;20211;-69
2022/01/07 08:16:58;;;;;;;11.77;6.40;;;2.40;99.90;;;;;;4898019;29;20206;-68
2022/01/07 08:19:25;;;;;;;7.30;6.28;;;2.50;99.90;;;;;;4898047;29;20231;-68
2022/01/07 08:21:52;;;;;;;9.40;7.00;;;2.60;99.90;;;;;;4896227;29;20238;-69
2022/01/07 08:24:19;;;;;;;14.35;7.45;;;2.50;99.90;;;;;;4893207;29;20227;-69
2022/01/07 08:26:47;;;;;;;13.05;8.38;;;2.40;99.90;;;;;;4897783;29;20278;-68
2022/01/07 08:29:15;;;;;;;8.85;7.32;;;2.40;99.90;;;;;;4897596;29;20227;-69
2022/01/07 08:37:10;;;;;;;7.82;6.20;;;2.30;99.90;;;;;;4893124;29;20575;-68
2022/01/07 08:39:38;;;;;;;9.95;6.63;;;2.30;99.90;;;;;;4893026;29;20239;-69
2022/01/07 08:42:07;;;;;;;9.65;6.78;;;2.30;99.90;;;;;;4897070;29;20230;-68
2022/01/07 08:44:33;;;;;;;17.77;9.52;;;2.30;99.90;;;;;;4897570;29;20306;-68
2022/01/07 08:47:00;;;;;;;12.85;9.50;;;2.30;99.90;;;;;;4897369;29;20291;-68
2022/01/07 08:49:27;;;;;;;8.80;6.97;;;2.30;99.90;;;;;;4896207;29;20566;-68
2022/01/07 08:51:53;;;;;;;11.65;6.88;;;2.40;99.90;;;;;;4896977;29;20542;-68
2022/01/07 08:54:20;;;;;;;12.48;7.70;;;2.40;99.90;;;;;;4897458;29;20215;-67
2022/01/07 08:56:47;;;;;;;6.68;6.15;;;2.40;99.90;;;;;;4896085;29;20207;-67
2022/01/07 08:59:15;;;;;;;8.80;5.88;;;2.40;99.90;;;;;;4894864;29;20233;-67
2022/01/07 09:01:42;;;;;;;8.80;6.90;;;2.40;99.90;;;;;;4889507;29;20271;-68
2022/01/07 09:04:09;;;;;;;9.60;7.30;;;2.40;99.90;;;;;;4896784;29;20215;-68
2022/01/07 09:06:36;;;;;;;7.55;6.55;;;2.40;99.90;;;;;;4896736;29;20204;-69
2022/01/07 09:09:03;;;;;;;9.10;8.10;;;2.50;99.90;;;;;;4896959;29;20734;-70
2022/01/07 09:11:30;;;;;;;8.82;6.72;;;2.50;99.90;;;;;;4894483;29;20207;-68
2022/01/07 09:13:58;;;;;;;8.93;8.00;;;2.50;99.90;;;;;;4894491;29;20231;-68
2022/01/07 09:16:27;;;;;;;8.63;7.70;;;2.40;99.90;;;;;;4896203;29;20239;-68
2022/01/07 09:18:53;;;;;;;7.45;6.75;;;2.50;99.90;;;;;;4896394;29;20231;-68
2022/01/07 09:21:20;;;;;;;8.25;7.05;;;2.40;99.90;;;;;;4895740;29;20263;-68
2022/01/07 09:23:48;;;;;;;10.82;8.15;;;2.50;99.90;;;;;;4896499;29;20216;-69
2022/01/07 09:26:15;;;;;;;7.10;6.50;;;2.50;99.90;;;;;;4895257;29;20212;-67
2022/01/07 09:28:41;;;;;;;8.18;7.15;;;2.50;99.90;;;;;;4895044;29;20227;-68
2022/01/07 09:31:08;;;;;;;10.27;9.18;;;2.50;99.90;;;;;;4896080;29;20262;-68
2022/01/07 09:33:36;;;;;;;10.68;8.27;;;2.50;99.90;;;;;;4896255;29;20278;-67
2022/01/07 09:36:03;;;;;;;9.18;8.18;;;2.50;99.90;;;;;;4896626;29;20270;-67
2022/01/07 09:38:30;;;;;;;12.10;9.23;;;2.50;99.90;;;;;;4895867;29;20249;-68
2022/01/07 09:40:57;;;;;;;7.30;6.60;;;2.50;99.90;;;;;;4896150;29;20219;-68
2022/01/07 09:43:23;;;;;;;8.82;7.93;;;2.50;99.90;;;;;;4895227;29;20234;-67
2022/01/07 09:45:51;;;;;;;6.88;6.25;;;2.50;99.90;;;;;;4895311;29;20333;-68
2022/01/07 09:48:18;;;;;;;6.82;6.22;;;2.50;99.90;;;;;;4895583;29;20299;-67
2022/01/07 09:50:46;;;;;;;8.02;6.75;;;2.50;99.90;;;;;;4892836;29;20302;-68
2022/01/07 09:53:15;;;;;;;9.10;7.38;;;2.50;99.90;;;;;;4890977;29;20203;-67
2022/01/07 09:55:42;;;;;;;13.50;7.45;;;2.60;99.90;;;;;;4895563;29;20204;-68
2022/01/07 09:58:10;;;;;;;11.05;8.93;;;2.60;99.90;;;;;;4894554;29;20271;-68
2022/01/07 10:00:40;;;;;;;8.70;7.68;;;2.60;99.90;;;;;;4895412;29;20239;-68
2022/01/07 10:03:08;;;;;;;9.30;8.23;;;2.70;99.90;;;;;;4895719;29;20305;-68
2022/01/07 10:05:41;;;;;;;15.10;10.82;;;2.60;99.90;;;;;;4895632;29;20267;-68
2022/01/07 10:08:21;;;;;;;7.78;7.00;;;2.70;99.90;;;;;;4895677;29;20656;-68
2022/01/07 10:10:48;;;;;;;10.20;6.50;;;2.70;99.90;;;;;;4893735;29;20647;-68
2022/01/07 10:13:20;;;;;;;9.80;7.50;;;2.70;99.90;;;;;;4894847;29;20208;-68
2022/01/07 10:15:47;;;;;;;10.18;7.10;;;2.70;99.90;;;;;;4894673;29;20291;-68
2022/01/07 10:18:15;;;;;;;7.50;6.72;;;2.70;99.90;;;;;;4895615;29;20215;-68
2022/01/07 10:20:44;;;;;;;7.72;6.93;;;2.80;99.90;;;;;;4893647;29;20601;-68
2022/01/07 10:23:13;;;;;;;8.35;7.45;;;2.80;99.90;;;;;;4894498;29;20723;-68
2022/01/07 10:25:43;;;;;;;7.72;7.03;;;2.80;99.90;;;;;;4892948;29;20239;-69
2022/01/07 10:28:12;;;;;;;8.23;6.78;;;2.80;99.90;;;;;;4893655;29;20255;-68
2022/01/07 10:30:41;;;;;;;7.65;6.15;;;2.80;99.90;;;;;;4894823;29;20208;-69
2022/01/07 10:33:22;;;;;;;7.22;6.50;;;2.80;99.90;;;;;;4895528;29;20231;-68
2022/01/07 10:35:52;;;;;;;6.57;5.95;;;2.80;99.90;;;;;;4894350;29;20215;-69
2022/01/07 10:38:21;;;;;;;8.75;7.40;;;2.80;99.90;;;;;;4894248;29;20242;-68
2022/01/07 10:40:50;;;;;;;7.85;7.05;;;2.80;99.90;;;;;;4896032;29;20214;-69
2022/01/07 10:43:19;;;;;;;8.40;7.63;;;2.80;99.90;;;;;;4894723;29;20271;-68
2022/01/07 10:45:48;;;;;;;13.68;8.30;;;2.90;99.90;;;;;;4895030;29;20290;-69
2022/01/07 10:48:16;;;;;;;9.10;8.05;;;2.90;99.90;;;;;;4892121;29;20738;-68
2022/01/07 10:50:44;;;;;;;7.70;6.88;;;2.90;99.90;;;;;;4893061;29;20299;-67
2022/01/07 10:53:23;;;;;;;10.50;8.48;;;2.90;99.90;;;;;;4894745;29;20211;-68
2022/01/07 10:56:11;;;;;;;10.95;8.90;;;2.90;99.90;;;;;;4885979;29;20199;-68
2022/01/07 10:59:04;;;;;;;12.20;9.25;;;3.00;99.90;;;;;;4890948;29;20231;-68
2022/01/07 11:01:43;;;;;;;11.38;8.73;;;2.90;99.90;;;;;;4893971;29;20230;-69
2022/01/07 11:04:12;;;;;;;12.13;8.73;;;3.00;99.90;;;;;;4894748;29;20203;-69
2022/01/07 11:06:40;;;;;;;9.85;8.25;;;3.00;99.90;;;;;;4895232;29;20215;-69
2022/01/07 11:09:09;;;;;;;10.20;8.30;;;3.00;99.90;;;;;;4894742;29;20231;-69
2022/01/07 11:11:46;;;;;;;10.77;9.68;;;3.00;99.90;;;;;;4894902;29;20728;-69
2022/01/07 11:14:16;;;;;;;14.75;12.75;;;3.00;99.90;;;;;;4893970;29;20210;-69
2022/01/07 11:16:43;;;;;;;13.20;11.38;;;3.10;99.90;;;;;;4894930;29;20211;-69
2022/01/07 11:19:11;;;;;;;13.63;10.98;;;3.10;99.90;;;;;;4892838;29;20227;-69
2022/01/07 11:21:38;;;;;;;13.70;12.00;;;3.10;99.90;;;;;;4894732;29;20227;-69
2022/01/07 11:24:37;;;;;;;15.95;14.30;;;3.10;99.90;;;;;;4894699;29;20227;-68
2022/01/07 11:27:08;;;;;;;8.85;7.05;;;3.10;99.90;;;;;;4897879;29;20206;-69
2022/01/07 11:29:41;;;;;;;10.43;9.25;;;3.10;99.90;;;;;;4897274;29;20271;-69
2022/01/07 11:32:30;;;;;;;8.35;7.40;;;3.10;99.90;;;;;;4898614;29;20226;-69
2022/01/07 11:35:18;;;;;;;9.52;8.57;;;3.00;99.90;;;;;;4898558;29;20207;-69
2022/01/07 11:37:47;;;;;;;10.50;8.15;;;3.00;99.90;;;;;;4898481;29;20275;-69
2022/01/07 11:40:44;;;;;;;15.45;12.57;;;3.00;99.90;;;;;;4897313;29;20227;-69
2022/01/07 11:43:31;;;;;;;8.95;8.05;;;3.00;99.90;;;;;;4897431;29;20256;-69
2022/01/07 11:45:59;;;;;;;9.30;8.20;;;3.00;99.90;;;;;;4897269;29;20218;-68
2022/01/07 11:48:30;;;;;;;9.88;7.70;;;3.00;99.90;;;;;;4897451;29;20211;-68
2022/01/07 11:51:14;;;;;;;9.45;8.55;;;3.10;99.90;;;;;;4897826;29;20565;-68
2022/01/07 11:54:02;;;;;;;13.45;10.57;;;3.10;99.90;;;;;;4897773;29;20225;-68
2022/01/07 11:56:29;;;;;;;11.35;8.95;;;3.10;99.90;;;;;;4897440;29;20211;-68
2022/01/07 11:58:59;;;;;;;14.52;10.02;;;3.10;99.90;;;;;;4897023;29;20637;-68
2022/01/07 12:01:28;;;;;;;10.35;8.90;;;3.10;99.90;;;;;;4896695;29;20215;-68
2022/01/07 12:03:56;;;;;;;13.80;9.52;;;3.20;99.90;;;;;;4898013;29;20223;-68
2022/01/07 12:06:46;;;;;;;11.05;8.20;;;3.20;99.90;;;;;;4897767;29;20207;-68
2022/01/07 12:09:19;;;;;;;11.48;9.20;;;3.20;99.90;;;;;;4897287;29;20227;-68
2022/01/07 12:11:57;;;;;;;13.85;10.40;;;3.30;99.90;;;;;;4888339;29;20212;-68
2022/01/07 12:14:27;;;;;;;11.23;9.32;;;3.30;99.90;;;;;;4897818;29;20215;-68
2022/01/07 12:16:55;;;;;;;11.60;8.30;;;3.30;99.90;;;;;;4897441;29;20319;-68
2022/01/07 12:20:02;;;;;;;14.55;11.30;;;3.30;99.90;;;;;;4893511;29;20234;-70
2022/01/07 12:22:29;;;;;;;13.27;11.75;;;3.30;99.90;;;;;;4893776;29;20734;-69
2022/01/07 12:25:00;;;;;;;15.40;10.20;;;3.30;99.90;;;;;;4896885;29;20211;-69
2022/01/07 12:27:27;;;;;;;14.90;11.60;;;3.30;99.90;;;;;;4896315;29;20215;-70
2022/01/07 12:29:57;;;;;;;18.48;11.73;;;3.30;99.90;;;;;;4893377;29;20296;-69
2022/01/07 12:32:31;;;;;;;13.52;10.48;;;3.40;99.90;;;;;;4896125;29;20204;-69
2022/01/07 12:34:57;;;;;;;14.70;10.85;;;3.40;99.90;;;;;;4887221;29;20259;-69
2022/01/07 12:37:25;;;;;;;12.73;9.88;;;3.40;99.90;;;;;;4895741;29;20730;-68
2022/01/07 12:39:54;;;;;;;14.10;10.88;;;3.50;99.90;;;;;;4892839;29;20243;-69
2022/01/07 12:42:21;;;;;;;18.13;12.15;;;3.50;99.90;;;;;;4895897;29;20203;-69
2022/01/07 12:44:51;;;;;;;16.67;11.50;;;3.50;99.90;;;;;;4896087;29;20641;-70
2022/01/07 12:47:21;;;;;;;16.08;12.10;;;3.50;99.90;;;;;;4891229;29;20204;-70
2022/01/07 12:49:50;;;;;;;14.93;12.52;;;3.50;99.90;;;;;;4893174;29;20729;-70
2022/01/07 12:52:19;;;;;;;15.38;10.95;;;3.50;99.90;;;;;;4894775;29;20215;-69
2022/01/07 12:54:57;;;;;;;14.82;11.75;;;3.60;99.90;;;;;;4896733;29;20207;-69
2022/01/07 12:57:26;;;;;;;19.48;13.30;;;3.60;99.90;;;;;;4896080;29;20218;-68
2022/01/07 13:00:04;;;;;;;19.67;13.77;;;3.70;99.90;;;;;;4895549;29;20227;-69
2022/01/07 13:02:32;;;;;;;19.27;12.57;;;3.70;99.90;;;;;;4896380;29;20215;-69
2022/01/07 13:05:14;;;;;;;22.38;14.60;;;3.80;99.90;;;;;;4896217;29;20218;-68
2022/01/07 13:07:42;;;;;;;23.92;12.70;;;3.80;99.90;;;;;;4896548;29;20218;-68
2022/01/07 13:10:09;;;;;;;21.58;13.68;;;3.80;99.90;;;;;;4881290;29;20236;-68
2022/01/07 13:12:36;;;;;;;26.70;17.45;;;3.90;99.90;;;;;;4894600;29;20218;-68
2022/01/07 13:15:04;;;;;;;22.80;14.25;;;3.90;99.90;;;;;;4890613;29;20255;-69
2022/01/07 13:17:32;;;;;;;20.70;13.70;;;3.90;99.90;;;;;;4892724;29;20264;-69
2022/01/07 13:19:59;;;;;;;22.63;15.30;;;4.00;99.90;;;;;;4895820;29;20275;-69
2022/01/07 13:22:28;;;;;;;20.98;15.18;;;4.00;99.90;;;;;;4893581;29;20215;-67
2022/01/07 13:24:55;;;;;;;21.90;13.52;;;4.00;99.90;;;;;;4895542;29;20227;-69
2022/01/07 13:27:22;;;;;;;15.73;12.20;;;4.00;99.90;;;;;;4890040;29;20234;-70
2022/01/07 13:29:51;;;;;;;22.95;15.02;;;4.10;99.90;;;;;;4895773;29;20223;-69
2022/01/07 13:32:23;;;;;;;24.38;15.77;;;4.10;99.90;;;;;;4903880;29;20208;-71
2022/01/07 13:34:52;;;;;;;23.48;16.23;;;4.10;99.90;;;;;;4889289;29;20279;-68
2022/01/07 13:37:20;;;;;;;22.80;14.95;;;4.10;99.90;;;;;;4889393;29;20625;-71
2022/01/07 13:39:49;;;;;;;28.10;14.98;;;4.20;99.90;;;;;;4886719;29;20334;-69
2022/01/07 13:42:21;;;;;;;20.60;14.63;;;4.20;99.90;;;;;;4893865;29;20245;-70
2022/01/07 13:44:54;;;;;;;23.20;14.05;;;4.20;99.90;;;;;;4893772;29;20760;-70
2022/01/07 13:47:22;;;;;;;24.20;15.98;;;4.20;99.90;;;;;;4892039;29;20211;-70
2022/01/07 13:49:50;;;;;;;20.85;14.80;;;4.20;99.90;;;;;;4893601;29;20634;-70
2022/01/07 13:52:27;;;;;;;24.30;15.00;;;4.20;99.90;;;;;;4897151;29;20211;-70
2022/01/07 13:54:54;;;;;;;21.40;14.07;;;4.30;99.90;;;;;;4910135;29;20241;-71
2022/01/07 13:57:20;;;;;;;22.33;15.50;;;4.20;99.90;;;;;;4895210;29;20215;-71
2022/01/07 13:59:50;;;;;;;27.77;16.33;;;4.20;99.90;;;;;;4894410;29;20239;-71
2022/01/07 14:02:19;;;;;;;22.33;14.95;;;4.20;99.90;;;;;;4889916;29;20212;-69
2022/01/07 14:04:48;;;;;;;25.58;14.93;;;4.20;99.90;;;;;;4895117;29;20680;-70
2022/01/07 14:07:28;;;;;;;26.70;15.98;;;4.20;99.90;;;;;;4893841;29;20652;-69
2022/01/07 14:10:13;;;;;;;21.05;14.68;;;4.20;99.90;;;;;;4889116;29;20663;-70
2022/01/07 14:12:48;;;;;;;28.38;16.40;;;4.20;99.90;;;;;;4895124;29;20701;-70
2022/01/07 14:15:16;;;;;;;21.70;15.63;;;4.20;99.90;;;;;;4895753;29;20669;-71
2022/01/07 14:17:44;;;;;;;22.27;15.15;;;4.20;99.90;;;;;;4896426;29;20222;-71
2022/01/07 14:20:14;;;;;;;23.35;15.48;;;4.20;99.90;;;;;;4892035;29;20330;-72
2022/01/07 14:22:45;;;;;;;26.17;15.65;;;4.20;99.90;;;;;;4887683;29;20203;-70
2022/01/07 14:25:14;;;;;;;21.42;14.27;;;4.20;99.90;;;;;;4895721;29;20663;-70
2022/01/07 14:27:42;;;;;;;23.95;14.25;;;4.20;99.90;;;;;;4895032;29;20221;-71
2022/01/07 14:30:12;;;;;;;25.33;15.30;;;4.20;99.90;;;;;;4894166;29;20223;-70
2022/01/07 14:32:38;;;;;;;23.83;15.13;;;4.20;99.90;;;;;;4895203;29;20638;-70
2022/01/07 14:35:08;;;;;;;23.15;15.23;;;4.20;99.90;;;;;;4894400;29;20210;-68
2022/01/07 14:37:35;;;;;;;23.88;15.57;;;4.20;99.90;;;;;;4893251;29;20211;-70
2022/01/07 14:40:05;;;;;;;22.60;15.32;;;4.10;99.90;;;;;;4893421;29;20385;-70
2022/01/07 14:42:31;;;;;;;21.52;15.05;;;4.20;99.90;;;;;;4895575;29;20607;-70
2022/01/07 14:44:58;;;;;;;27.02;16.58;;;4.10;99.90;;;;;;4894757;29;20230;-71
2022/01/07 14:47:25;;;;;;;23.63;14.70;;;4.20;99.90;;;;;;4895057;29;20203;-71
2022/01/07 14:49:53;;;;;;;23.92;16.00;;;4.20;99.90;;;;;;4894504;29;20246;-70
2022/01/07 14:52:24;;;;;;;24.13;16.00;;;4.10;99.90;;;;;;4895257;29;20599;-71
2022/01/07 14:54:51;;;;;;;32.13;16.50;;;4.10;99.90;;;;;;4895824;29;20203;-70
2022/01/07 14:57:19;;;;;;;27.98;16.77;;;4.10;99.90;;;;;;4894858;29;20212;-71
2022/01/07 14:59:46;;;;;;;25.38;15.60;;;4.10;99.90;;;;;;4894173;29;20677;-69
2022/01/07 15:02:14;;;;;;;27.23;17.45;;;4.10;99.90;;;;;;4894936;29;20471;-68
2022/01/07 15:04:42;;;;;;;25.42;16.95;;;4.20;99.90;;;;;;4891498;29;20235;-68
2022/01/07 15:07:09;;;;;;;25.98;17.23;;;4.20;99.90;;;;;;4898994;29;20215;-69
2022/01/07 15:09:38;;;;;;;26.52;16.42;;;4.20;99.90;;;;;;4898473;29;20235;-68
2022/01/07 15:12:06;;;;;;;24.45;15.48;;;4.20;99.90;;;;;;4898546;29;20652;-69
2022/01/07 15:14:34;;;;;;;23.90;14.88;;;4.10;99.90;;;;;;4898368;29;20207;-69
2022/01/07 15:17:01;;;;;;;31.55;18.23;;;4.10;99.90;;;;;;4899144;29;20215;-69
2022/01/07 15:19:31;;;;;;;27.83;17.27;;;4.10;99.90;;;;;;4898596;29;20768;-70
2022/01/07 15:21:59;;;;;;;29.65;16.50;;;4.10;99.90;;;;;;4898561;29;20238;-70
2022/01/07 15:24:26;;;;;;;31.60;18.40;;;4.00;99.90;;;;;;4898365;29;20219;-68
2022/01/07 15:26:52;;;;;;;23.70;14.88;;;4.00;99.90;;;;;;4898460;29;20212;-70
2022/01/07 15:29:19;;;;;;;26.88;18.67;;;4.00;99.90;;;;;;4896880;29;20262;-70
2022/01/07 15:31:47;;;;;;;28.60;17.73;;;4.00;99.90;;;;;;4897933;29;20294;-70
2022/01/07 15:34:14;;;;;;;22.15;15.55;;;4.00;99.90;;;;;;4898724;29;20211;-70
2022/01/07 15:36:42;;;;;;;30.80;17.45;;;4.00;99.90;;;;;;4898015;29;20203;-69
2022/01/07 15:39:11;;;;;;;27.98;16.63;;;4.10;99.90;;;;;;4897792;29;20298;-68
2022/01/07 15:41:38;;;;;;;23.73;15.95;;;4.10;99.90;;;;;;4897751;29;20255;-70
2022/01/07 15:44:06;;;;;;;31.13;18.30;;;4.10;99.90;;;;;;4897498;29;20300;-71
2022/01/07 15:46:32;;;;;;;24.08;16.60;;;4.20;99.90;;;;;;4898091;29;20222;-69
2022/01/07 15:49:01;;;;;;;31.45;18.30;;;4.20;99.90;;;;;;4898256;29;20290;-68
2022/01/07 15:51:28;;;;;;;28.33;17.80;;;4.20;99.90;;;;;;4896923;29;20211;-69
2022/01/07 15:53:56;;;;;;;26.88;15.90;;;4.20;99.90;;;;;;4887117;29;20350;-70
2022/01/07 15:56:23;;;;;;;25.45;17.60;;;4.20;99.90;;;;;;4896918;29;20203;-71
2022/01/07 15:58:50;;;;;;;26.27;19.40;;;4.20;99.90;;;;;;4901848;29;20222;-70
2022/01/07 16:01:17;;;;;;;25.85;16.35;;;4.10;99.90;;;;;;4909119;29;20206;-70
2022/01/07 16:03:44;;;;;;;27.85;17.60;;;4.10;99.90;;;;;;4899176;29;20234;-70
2022/01/07 16:06:13;;;;;;;30.92;19.27;;;4.10;99.90;;;;;;4894702;29;20613;-69
2022/01/07 16:08:41;;;;;;;28.92;17.00;;;4.10;99.90;;;;;;4898168;29;20245;-71
2022/01/07 16:11:08;;;;;;;25.75;17.08;;;4.10;99.90;;;;;;4897355;29;20597;-71
2022/01/07 16:13:36;;;;;;;28.77;17.92;;;4.10;99.90;;;;;;4903708;29;20302;-70
2022/01/07 16:16:04;;;;;;;25.38;16.83;;;4.00;99.90;;;;;;4887252;29;20208;-70
2022/01/07 16:18:30;;;;;;;32.88;18.30;;;4.00;99.90;;;;;;4891965;29;20274;-73
2022/01/07 16:20:57;;;;;;;29.90;18.02;;;4.00;99.90;;;;;;4894323;29;20583;-70
2022/01/07 16:23:25;;;;;;;24.02;16.20;;;4.00;99.90;;;;;;4892634;29;20525;-70
2022/01/07 16:25:52;;;;;;;27.75;17.02;;;4.00;99.90;;;;;;4895702;29;20265;-70
2022/01/07 16:28:18;;;;;;;25.58;17.65;;;3.90;99.90;;;;;;4892606;29;20207;-69
2022/01/07 16:30:47;;;;;;;29.33;16.70;;;3.90;99.90;;;;;;4898205;29;20218;-70
2022/01/07 16:33:16;;;;;;;22.85;15.85;;;3.80;99.90;;;;;;4894381;29;20207;-69
2022/01/07 16:35:44;;;;;;;29.33;17.77;;;3.80;99.90;;;;;;4895857;29;20199;-71
2022/01/07 16:38:11;;;;;;;25.75;16.20;;;3.80;99.90;;;;;;4891313;29;20303;-70
2022/01/07 16:40:39;;;;;;;26.55;15.65;;;3.70;99.90;;;;;;4891874;29;20255;-70
2022/01/07 16:43:06;;;;;;;22.92;15.10;;;3.70;99.90;;;;;;4897608;29;20590;-71
2022/01/07 16:45:33;;;;;;;27.67;15.88;;;3.60;99.90;;;;;;4891446;29;20618;-69
2022/01/07 16:47:59;;;;;;;27.30;14.60;;;3.60;99.90;;;;;;4898984;29;20357;-70
2022/01/07 16:50:26;;;;;;;24.95;16.63;;;3.60;99.90;;;;;;4894493;29;20223;-69
2022/01/07 16:52:53;;;;;;;23.10;15.70;;;3.60;99.90;;;;;;4892917;29;20219;-71
2022/01/07 16:55:20;;;;;;;25.63;17.17;;;3.60;99.90;;;;;;4894961;29;20736;-70
2022/01/07 16:57:49;;;;;;;23.13;15.40;;;3.60;99.90;;;;;;4894416;29;20203;-71
2022/01/07 17:00:17;;;;;;;30.45;18.25;;;3.60;99.90;;;;;;4887561;29;20564;-69
2022/01/07 17:02:44;;;;;;;25.08;16.80;;;3.50;99.90;;;;;;4889668;29;20255;-69
2022/01/07 17:05:11;;;;;;;24.38;15.48;;;3.50;99.90;;;;;;4896315;29;20254;-71
2022/01/07 17:07:38;;;;;;;28.60;17.00;;;3.50;99.90;;;;;;4896891;29;20211;-68
2022/01/07 17:10:06;;;;;;;31.30;16.83;;;3.50;99.90;;;;;;4897153;29;20223;-69
2022/01/07 17:12:33;;;;;;;30.05;17.02;;;3.50;99.90;;;;;;4898243;29;20316;-70
2022/01/07 17:15:02;;;;;;;27.73;16.42;;;3.50;99.90;;;;;;4894409;29;20857;-69
2022/01/07 17:17:28;;;;;;;28.85;18.17;;;3.50;99.90;;;;;;4899894;29;20203;-69
2022/01/07 17:19:56;;;;;;;32.20;17.23;;;3.50;99.90;;;;;;4896340;29;20235;-69
2022/01/07 17:22:22;;;;;;;24.23;16.88;;;3.60;99.90;;;;;;4896896;29;20294;-69
2022/01/07 17:24:49;;;;;;;27.38;18.15;;;3.60;99.90;;;;;;4904796;29;20286;-69
2022/01/07 17:27:16;;;;;;;29.55;17.65;;;3.60;99.90;;;;;;4889610;29;20230;-71
2022/01/07 17:29:43;;;;;;;25.63;17.30;;;3.60;99.90;;;;;;4899113;29;20257;-70
2022/01/07 17:32:12;;;;;;;24.65;17.13;;;3.60;99.90;;;;;;4889043;29;20291;-71
2022/01/07 17:34:38;;;;;;;30.50;18.25;;;3.60;99.90;;;;;;4896427;29;20239;-71
2022/01/07 17:37:05;;;;;;;32.17;16.30;;;3.60;99.90;;;;;;4896901;29;20222;-71
2022/01/07 17:39:32;;;;;;;28.65;17.65;;;3.60;99.90;;;;;;4897189;29;20242;-72
2022/01/07 17:42:00;;;;;;;28.85;17.38;;;3.70;99.90;;;;;;4892120;29;20277;-72
2022/01/07 17:44:27;;;;;;;25.13;15.35;;;3.70;99.90;;;;;;4899346;29;20322;-70
2022/01/07 17:46:54;;;;;;;29.98;17.30;;;3.70;99.90;;;;;;4893742;29;20276;-69
2022/01/07 17:49:22;;;;;;;27.02;16.33;;;3.70;99.90;;;;;;4902335;29;20234;-69
2022/01/07 17:51:49;;;;;;;27.40;16.60;;;3.70;99.90;;;;;;4900823;29;20223;-69
2022/01/07 17:54:16;;;;;;;27.50;16.58;;;3.80;99.90;;;;;;4900505;29;20270;-69
2022/01/07 17:56:42;;;;;;;40.95;24.73;;;3.70;99.90;;;;;;4896947;29;20279;-70
2022/01/07 17:59:09;;;;;;;32.65;18.42;;;3.70;99.90;;;;;;4905981;29;20644;-69
2022/01/07 18:01:36;;;;;;;21.95;15.75;;;3.60;99.90;;;;;;4896073;29;20226;-67
2022/01/07 18:04:02;;;;;;;30.92;19.23;;;3.60;99.90;;;;;;4894312;29;20287;-68